sensor_id;sensor_type;location;lat;lon;timestamp;P1;durP1;ratioP1;P2;durP2;ratioP2
11614;SDS011;5863;52.832;4.758;2024-02-26T00:00:08;14.67;;;9.73;;
11614;SDS011;5863;52.832;4.758;2024-02-26T00:02:36;13.67;;;10.13;;
11614;SDS011;5863;52.832;4.758;2024-02-26T00:05:03;14.63;;;10.43;;
11614;SDS011;5863;52.832;4.758;2024-02-26T00:07:31;14.57;;;10.43;;
11614;SDS011;5863;52.832;4.758;2024-02-26T00:09:58;13.63;;;9.53;;
11614;SDS011;5863;52.832;4.758;2024-02-26T00:12:25;13.50;;;10.27;;
11614;SDS011;5863;52.832;4.758;2024-02-26T00:14:52;15.33;;;10.73;;
11614;SDS011;5863;52.832;4.758;2024-02-26T00:17:20;12.27;;;9.33;;
11614;SDS011;5863;52.832;4.758;2024-02-26T00:19:47;13.20;;;9.97;;
11614;SDS011;5863;52.832;4.758;2024-02-26T00:22:14;16.00;;;11.50;;
11614;SDS011;5863;52.832;4.758;2024-02-26T00:24:41;13.90;;;10.03;;
11614;SDS011;5863;52.832;4.758;2024-02-26T00:27:07;14.30;;;10.60;;
11614;SDS011;5863;52.832;4.758;2024-02-26T00:29:34;15.37;;;10.77;;
11614;SDS011;5863;52.832;4.758;2024-02-26T00:32:01;14.07;;;10.17;;
11614;SDS011;5863;52.832;4.758;2024-02-26T00:34:30;16.57;;;10.93;;
11614;SDS011;5863;52.832;4.758;2024-02-26T00:36:57;15.87;;;11.70;;
11614;SDS011;5863;52.832;4.758;2024-02-26T00:39:24;16.07;;;11.20;;
11614;SDS011;5863;52.832;4.758;2024-02-26T00:41:51;16.20;;;10.77;;
11614;SDS011;5863;52.832;4.758;2024-02-26T00:44:17;14.13;;;10.47;;
11614;SDS011;5863;52.832;4.758;2024-02-26T00:46:44;14.53;;;10.07;;
11614;SDS011;5863;52.832;4.758;2024-02-26T00:49:11;16.10;;;11.27;;
11614;SDS011;5863;52.832;4.758;2024-02-26T00:51:40;14.50;;;10.50;;
11614;SDS011;5863;52.832;4.758;2024-02-26T00:54:06;17.50;;;11.33;;
11614;SDS011;5863;52.832;4.758;2024-02-26T00:56:33;14.90;;;11.13;;
11614;SDS011;5863;52.832;4.758;2024-02-26T00:59:00;13.60;;;10.30;;
11614;SDS011;5863;52.832;4.758;2024-02-26T01:01:27;14.13;;;10.27;;
11614;SDS011;5863;52.832;4.758;2024-02-26T01:03:54;14.87;;;10.33;;
11614;SDS011;5863;52.832;4.758;2024-02-26T01:06:20;15.73;;;11.07;;
11614;SDS011;5863;52.832;4.758;2024-02-26T01:08:49;17.27;;;10.60;;
11614;SDS011;5863;52.832;4.758;2024-02-26T01:11:16;15.40;;;10.97;;
11614;SDS011;5863;52.832;4.758;2024-02-26T01:13:43;14.53;;;11.20;;
11614;SDS011;5863;52.832;4.758;2024-02-26T01:16:10;16.53;;;11.10;;
11614;SDS011;5863;52.832;4.758;2024-02-26T01:18:37;15.77;;;10.47;;
11614;SDS011;5863;52.832;4.758;2024-02-26T01:21:03;18.47;;;11.23;;
11614;SDS011;5863;52.832;4.758;2024-02-26T01:23:32;17.50;;;11.27;;
11614;SDS011;5863;52.832;4.758;2024-02-26T01:26:00;16.80;;;10.73;;
11614;SDS011;5863;52.832;4.758;2024-02-26T01:28:27;15.13;;;10.50;;
11614;SDS011;5863;52.832;4.758;2024-02-26T01:30:54;15.00;;;10.37;;
11614;SDS011;5863;52.832;4.758;2024-02-26T01:33:21;19.27;;;11.20;;
11614;SDS011;5863;52.832;4.758;2024-02-26T01:35:48;16.70;;;10.60;;
11614;SDS011;5863;52.832;4.758;2024-02-26T01:38:15;19.20;;;10.20;;
11614;SDS011;5863;52.832;4.758;2024-02-26T01:40:42;16.30;;;10.30;;
11614;SDS011;5863;52.832;4.758;2024-02-26T01:43:10;15.47;;;11.03;;
11614;SDS011;5863;52.832;4.758;2024-02-26T01:45:37;14.63;;;9.90;;
11614;SDS011;5863;52.832;4.758;2024-02-26T01:48:05;14.83;;;10.10;;
11614;SDS011;5863;52.832;4.758;2024-02-26T01:50:33;14.13;;;10.13;;
11614;SDS011;5863;52.832;4.758;2024-02-26T01:53:03;14.27;;;9.77;;
11614;SDS011;5863;52.832;4.758;2024-02-26T01:55:30;14.73;;;10.87;;
11614;SDS011;5863;52.832;4.758;2024-02-26T01:57:57;14.60;;;9.87;;
11614;SDS011;5863;52.832;4.758;2024-02-26T02:00:26;15.83;;;10.50;;
11614;SDS011;5863;52.832;4.758;2024-02-26T02:02:54;14.87;;;10.00;;
11614;SDS011;5863;52.832;4.758;2024-02-26T02:05:21;14.37;;;10.30;;
11614;SDS011;5863;52.832;4.758;2024-02-26T02:07:49;14.27;;;9.80;;
11614;SDS011;5863;52.832;4.758;2024-02-26T02:10:17;15.13;;;10.03;;
11614;SDS011;5863;52.832;4.758;2024-02-26T02:12:47;14.20;;;9.70;;
11614;SDS011;5863;52.832;4.758;2024-02-26T02:15:14;12.70;;;9.40;;
11614;SDS011;5863;52.832;4.758;2024-02-26T02:17:43;10.67;;;7.50;;
11614;SDS011;5863;52.832;4.758;2024-02-26T02:20:14;13.20;;;9.33;;
11614;SDS011;5863;52.832;4.758;2024-02-26T02:22:44;15.40;;;9.17;;
11614;SDS011;5863;52.832;4.758;2024-02-26T02:25:11;11.10;;;8.27;;
11614;SDS011;5863;52.832;4.758;2024-02-26T02:27:38;12.20;;;9.13;;
11614;SDS011;5863;52.832;4.758;2024-02-26T02:30:06;12.00;;;7.83;;
11614;SDS011;5863;52.832;4.758;2024-02-26T02:32:33;10.97;;;8.10;;
11614;SDS011;5863;52.832;4.758;2024-02-26T02:35:01;12.57;;;9.00;;
11614;SDS011;5863;52.832;4.758;2024-02-26T02:37:28;11.83;;;8.37;;
11614;SDS011;5863;52.832;4.758;2024-02-26T02:39:57;11.17;;;8.47;;
11614;SDS011;5863;52.832;4.758;2024-02-26T02:42:24;11.73;;;7.93;;
11614;SDS011;5863;52.832;4.758;2024-02-26T02:44:50;12.07;;;7.83;;
11614;SDS011;5863;52.832;4.758;2024-02-26T02:47:17;10.07;;;6.87;;
11614;SDS011;5863;52.832;4.758;2024-02-26T02:49:43;9.70;;;7.17;;
11614;SDS011;5863;52.832;4.758;2024-02-26T02:52:10;11.27;;;7.70;;
11614;SDS011;5863;52.832;4.758;2024-02-26T02:54:37;8.03;;;6.47;;
11614;SDS011;5863;52.832;4.758;2024-02-26T02:57:08;9.07;;;6.63;;
11614;SDS011;5863;52.832;4.758;2024-02-26T02:59:35;10.00;;;7.20;;
11614;SDS011;5863;52.832;4.758;2024-02-26T03:02:02;10.50;;;7.50;;
11614;SDS011;5863;52.832;4.758;2024-02-26T03:04:29;8.90;;;6.40;;
11614;SDS011;5863;52.832;4.758;2024-02-26T03:06:56;9.50;;;7.10;;
11614;SDS011;5863;52.832;4.758;2024-02-26T03:09:23;8.80;;;6.80;;
11614;SDS011;5863;52.832;4.758;2024-02-26T03:11:50;7.73;;;6.63;;
11614;SDS011;5863;52.832;4.758;2024-02-26T03:14:19;7.87;;;6.40;;
11614;SDS011;5863;52.832;4.758;2024-02-26T03:16:45;8.00;;;6.23;;
11614;SDS011;5863;52.832;4.758;2024-02-26T03:19:14;9.33;;;6.57;;
11614;SDS011;5863;52.832;4.758;2024-02-26T03:21:41;8.30;;;6.30;;
11614;SDS011;5863;52.832;4.758;2024-02-26T03:24:07;11.30;;;6.60;;
11614;SDS011;5863;52.832;4.758;2024-02-26T03:26:35;9.57;;;6.03;;
11614;SDS011;5863;52.832;4.758;2024-02-26T03:29:02;9.50;;;6.07;;
11614;SDS011;5863;52.832;4.758;2024-02-26T03:31:30;7.20;;;5.13;;
11614;SDS011;5863;52.832;4.758;2024-02-26T03:33:57;9.70;;;6.03;;
11614;SDS011;5863;52.832;4.758;2024-02-26T03:36:25;7.93;;;5.77;;
11614;SDS011;5863;52.832;4.758;2024-02-26T03:38:51;8.20;;;5.40;;
11614;SDS011;5863;52.832;4.758;2024-02-26T03:41:18;8.63;;;5.80;;
11614;SDS011;5863;52.832;4.758;2024-02-26T03:43:45;10.60;;;5.47;;
11614;SDS011;5863;52.832;4.758;2024-02-26T03:46:12;7.17;;;4.53;;
11614;SDS011;5863;52.832;4.758;2024-02-26T03:48:40;8.00;;;4.60;;
11614;SDS011;5863;52.832;4.758;2024-02-26T03:51:08;5.63;;;4.57;;
11614;SDS011;5863;52.832;4.758;2024-02-26T03:53:35;4.60;;;4.10;;
11614;SDS011;5863;52.832;4.758;2024-02-26T03:56:03;5.27;;;4.23;;
11614;SDS011;5863;52.832;4.758;2024-02-26T03:58:30;4.67;;;4.13;;
11614;SDS011;5863;52.832;4.758;2024-02-26T04:00:57;6.07;;;4.13;;
11614;SDS011;5863;52.832;4.758;2024-02-26T04:03:25;4.57;;;3.67;;
11614;SDS011;5863;52.832;4.758;2024-02-26T04:05:53;5.40;;;3.67;;
11614;SDS011;5863;52.832;4.758;2024-02-26T04:08:20;5.57;;;3.57;;
11614;SDS011;5863;52.832;4.758;2024-02-26T04:10:47;4.43;;;3.83;;
11614;SDS011;5863;52.832;4.758;2024-02-26T04:13:14;6.10;;;3.20;;
11614;SDS011;5863;52.832;4.758;2024-02-26T04:15:41;4.80;;;3.60;;
11614;SDS011;5863;52.832;4.758;2024-02-26T04:18:08;6.33;;;3.50;;
11614;SDS011;5863;52.832;4.758;2024-02-26T04:20:34;5.27;;;3.47;;
11614;SDS011;5863;52.832;4.758;2024-02-26T04:23:03;5.23;;;3.60;;
11614;SDS011;5863;52.832;4.758;2024-02-26T04:25:30;4.70;;;3.53;;
11614;SDS011;5863;52.832;4.758;2024-02-26T04:27:58;4.43;;;3.73;;
11614;SDS011;5863;52.832;4.758;2024-02-26T04:30:24;4.07;;;3.20;;
11614;SDS011;5863;52.832;4.758;2024-02-26T04:32:51;4.87;;;3.10;;
11614;SDS011;5863;52.832;4.758;2024-02-26T04:35:18;4.63;;;3.33;;
11614;SDS011;5863;52.832;4.758;2024-02-26T04:37:45;3.57;;;2.87;;
11614;SDS011;5863;52.832;4.758;2024-02-26T04:40:13;6.00;;;3.13;;
11614;SDS011;5863;52.832;4.758;2024-02-26T04:42:40;6.53;;;3.27;;
11614;SDS011;5863;52.832;4.758;2024-02-26T04:45:07;8.23;;;3.83;;
11614;SDS011;5863;52.832;4.758;2024-02-26T04:47:35;5.57;;;3.93;;
11614;SDS011;5863;52.832;4.758;2024-02-26T04:50:02;4.40;;;3.50;;
11614;SDS011;5863;52.832;4.758;2024-02-26T04:52:30;6.57;;;3.50;;
11614;SDS011;5863;52.832;4.758;2024-02-26T04:54:56;3.30;;;3.00;;
11614;SDS011;5863;52.832;4.758;2024-02-26T04:57:26;4.50;;;2.93;;
11614;SDS011;5863;52.832;4.758;2024-02-26T04:59:53;5.20;;;3.40;;
11614;SDS011;5863;52.832;4.758;2024-02-26T05:02:20;3.80;;;2.80;;
11614;SDS011;5863;52.832;4.758;2024-02-26T05:04:47;8.37;;;3.30;;
11614;SDS011;5863;52.832;4.758;2024-02-26T05:07:14;4.40;;;2.87;;
11614;SDS011;5863;52.832;4.758;2024-02-26T05:09:42;2.90;;;2.70;;
11614;SDS011;5863;52.832;4.758;2024-02-26T05:12:09;5.50;;;3.33;;
11614;SDS011;5863;52.832;4.758;2024-02-26T05:14:38;4.57;;;2.90;;
11614;SDS011;5863;52.832;4.758;2024-02-26T05:17:05;4.70;;;2.90;;
11614;SDS011;5863;52.832;4.758;2024-02-26T05:19:32;3.90;;;2.97;;
11614;SDS011;5863;52.832;4.758;2024-02-26T05:21:59;5.73;;;3.17;;
11614;SDS011;5863;52.832;4.758;2024-02-26T05:24:26;4.87;;;3.30;;
11614;SDS011;5863;52.832;4.758;2024-02-26T05:26:53;3.77;;;3.17;;
11614;SDS011;5863;52.832;4.758;2024-02-26T05:29:20;4.67;;;3.60;;
11614;SDS011;5863;52.832;4.758;2024-02-26T05:31:49;6.07;;;4.17;;
11614;SDS011;5863;52.832;4.758;2024-02-26T05:34:15;5.63;;;3.37;;
11614;SDS011;5863;52.832;4.758;2024-02-26T05:36:43;5.57;;;3.50;;
11614;SDS011;5863;52.832;4.758;2024-02-26T05:39:09;4.73;;;3.40;;
11614;SDS011;5863;52.832;4.758;2024-02-26T05:41:37;4.03;;;3.37;;
11614;SDS011;5863;52.832;4.758;2024-02-26T05:44:03;4.40;;;3.50;;
11614;SDS011;5863;52.832;4.758;2024-02-26T05:46:30;4.50;;;4.07;;
11614;SDS011;5863;52.832;4.758;2024-02-26T05:48:58;6.37;;;4.07;;
11614;SDS011;5863;52.832;4.758;2024-02-26T05:51:25;4.77;;;3.47;;
11614;SDS011;5863;52.832;4.758;2024-02-26T05:53:52;8.27;;;4.70;;
11614;SDS011;5863;52.832;4.758;2024-02-26T05:56:20;5.87;;;4.00;;
11614;SDS011;5863;52.832;4.758;2024-02-26T05:58:47;5.83;;;3.77;;
11614;SDS011;5863;52.832;4.758;2024-02-26T06:01:15;6.17;;;3.60;;
11614;SDS011;5863;52.832;4.758;2024-02-26T06:03:42;4.17;;;3.77;;
11614;SDS011;5863;52.832;4.758;2024-02-26T06:06:10;4.43;;;3.00;;
11614;SDS011;5863;52.832;4.758;2024-02-26T06:08:38;3.50;;;3.20;;
11614;SDS011;5863;52.832;4.758;2024-02-26T06:11:05;6.07;;;3.47;;
11614;SDS011;5863;52.832;4.758;2024-02-26T06:13:32;4.40;;;3.73;;
11614;SDS011;5863;52.832;4.758;2024-02-26T06:15:59;4.40;;;3.33;;
11614;SDS011;5863;52.832;4.758;2024-02-26T06:18:27;6.43;;;3.27;;
11614;SDS011;5863;52.832;4.758;2024-02-26T06:20:54;7.80;;;3.17;;
11614;SDS011;5863;52.832;4.758;2024-02-26T06:23:22;5.73;;;3.30;;
11614;SDS011;5863;52.832;4.758;2024-02-26T06:25:49;4.33;;;3.10;;
11614;SDS011;5863;52.832;4.758;2024-02-26T06:28:16;6.90;;;3.30;;
11614;SDS011;5863;52.832;4.758;2024-02-26T06:30:43;2.63;;;2.43;;
11614;SDS011;5863;52.832;4.758;2024-02-26T06:33:11;5.47;;;2.57;;
11614;SDS011;5863;52.832;4.758;2024-02-26T06:35:39;3.10;;;2.57;;
11614;SDS011;5863;52.832;4.758;2024-02-26T06:38:06;3.27;;;2.40;;
11614;SDS011;5863;52.832;4.758;2024-02-26T06:40:34;2.53;;;2.20;;
11614;SDS011;5863;52.832;4.758;2024-02-26T06:43:01;6.73;;;2.30;;
11614;SDS011;5863;52.832;4.758;2024-02-26T06:45:28;4.83;;;1.90;;
11614;SDS011;5863;52.832;4.758;2024-02-26T06:47:55;4.03;;;1.70;;
11614;SDS011;5863;52.832;4.758;2024-02-26T06:50:22;2.97;;;1.80;;
11614;SDS011;5863;52.832;4.758;2024-02-26T06:52:49;3.63;;;1.40;;
11614;SDS011;5863;52.832;4.758;2024-02-26T06:55:16;3.90;;;1.70;;
11614;SDS011;5863;52.832;4.758;2024-02-26T06:57:44;3.00;;;1.43;;
11614;SDS011;5863;52.832;4.758;2024-02-26T07:00:11;3.83;;;1.77;;
11614;SDS011;5863;52.832;4.758;2024-02-26T07:02:40;3.13;;;1.70;;
11614;SDS011;5863;52.832;4.758;2024-02-26T07:05:07;1.83;;;1.20;;
11614;SDS011;5863;52.832;4.758;2024-02-26T07:07:34;4.33;;;1.60;;
11614;SDS011;5863;52.832;4.758;2024-02-26T07:10:01;4.87;;;1.40;;
11614;SDS011;5863;52.832;4.758;2024-02-26T07:12:30;1.67;;;0.93;;
11614;SDS011;5863;52.832;4.758;2024-02-26T07:14:58;1.40;;;0.80;;
11614;SDS011;5863;52.832;4.758;2024-02-26T07:17:25;2.33;;;0.90;;
11614;SDS011;5863;52.832;4.758;2024-02-26T07:19:52;1.73;;;0.93;;
11614;SDS011;5863;52.832;4.758;2024-02-26T07:22:19;2.10;;;1.23;;
11614;SDS011;5863;52.832;4.758;2024-02-26T07:24:46;3.30;;;1.07;;
11614;SDS011;5863;52.832;4.758;2024-02-26T07:27:13;3.77;;;1.37;;
11614;SDS011;5863;52.832;4.758;2024-02-26T07:29:42;3.30;;;1.30;;
11614;SDS011;5863;52.832;4.758;2024-02-26T07:32:10;2.67;;;1.00;;
11614;SDS011;5863;52.832;4.758;2024-02-26T07:34:37;1.73;;;1.10;;
11614;SDS011;5863;52.832;4.758;2024-02-26T07:37:06;1.50;;;0.90;;
11614;SDS011;5863;52.832;4.758;2024-02-26T07:39:34;3.57;;;1.10;;
11614;SDS011;5863;52.832;4.758;2024-02-26T07:42:01;5.77;;;1.60;;
11614;SDS011;5863;52.832;4.758;2024-02-26T07:44:29;2.50;;;1.13;;
11614;SDS011;5863;52.832;4.758;2024-02-26T07:46:56;3.73;;;1.23;;
11614;SDS011;5863;52.832;4.758;2024-02-26T07:49:24;3.87;;;1.10;;
11614;SDS011;5863;52.832;4.758;2024-02-26T07:51:51;3.93;;;0.97;;
11614;SDS011;5863;52.832;4.758;2024-02-26T07:54:18;6.63;;;1.47;;
11614;SDS011;5863;52.832;4.758;2024-02-26T07:56:45;1.00;;;0.90;;
11614;SDS011;5863;52.832;4.758;2024-02-26T07:59:11;1.80;;;1.30;;
11614;SDS011;5863;52.832;4.758;2024-02-26T08:01:38;2.00;;;0.90;;
11614;SDS011;5863;52.832;4.758;2024-02-26T08:04:06;1.80;;;1.10;;
11614;SDS011;5863;52.832;4.758;2024-02-26T08:06:35;1.80;;;1.20;;
11614;SDS011;5863;52.832;4.758;2024-02-26T08:09:02;2.27;;;1.20;;
11614;SDS011;5863;52.832;4.758;2024-02-26T08:11:29;2.33;;;1.00;;
11614;SDS011;5863;52.832;4.758;2024-02-26T08:13:56;1.80;;;1.30;;
11614;SDS011;5863;52.832;4.758;2024-02-26T08:16:24;2.23;;;1.23;;
11614;SDS011;5863;52.832;4.758;2024-02-26T08:18:51;2.53;;;1.07;;
11614;SDS011;5863;52.832;4.758;2024-02-26T08:21:17;1.10;;;0.83;;
11614;SDS011;5863;52.832;4.758;2024-02-26T08:23:46;4.57;;;1.30;;
11614;SDS011;5863;52.832;4.758;2024-02-26T08:26:12;2.47;;;1.13;;
11614;SDS011;5863;52.832;4.758;2024-02-26T08:28:39;3.03;;;1.10;;
11614;SDS011;5863;52.832;4.758;2024-02-26T08:31:06;6.43;;;1.50;;
11614;SDS011;5863;52.832;4.758;2024-02-26T08:33:33;3.20;;;1.10;;
11614;SDS011;5863;52.832;4.758;2024-02-26T08:36:03;2.97;;;1.17;;
11614;SDS011;5863;52.832;4.758;2024-02-26T08:38:31;2.10;;;1.37;;
11614;SDS011;5863;52.832;4.758;2024-02-26T08:41:01;2.63;;;1.30;;
11614;SDS011;5863;52.832;4.758;2024-02-26T08:43:28;2.93;;;1.10;;
11614;SDS011;5863;52.832;4.758;2024-02-26T08:45:56;4.07;;;1.27;;
11614;SDS011;5863;52.832;4.758;2024-02-26T08:48:23;3.13;;;1.30;;
11614;SDS011;5863;52.832;4.758;2024-02-26T08:50:49;1.77;;;1.17;;
11614;SDS011;5863;52.832;4.758;2024-02-26T08:53:16;4.57;;;1.23;;
11614;SDS011;5863;52.832;4.758;2024-02-26T08:55:43;2.37;;;1.10;;
11614;SDS011;5863;52.832;4.758;2024-02-26T08:58:12;4.23;;;1.30;;
11614;SDS011;5863;52.832;4.758;2024-02-26T09:00:39;3.83;;;1.20;;
11614;SDS011;5863;52.832;4.758;2024-02-26T09:03:05;3.80;;;1.40;;
11614;SDS011;5863;52.832;4.758;2024-02-26T09:05:32;2.73;;;1.50;;
11614;SDS011;5863;52.832;4.758;2024-02-26T09:08:00;3.97;;;1.20;;
11614;SDS011;5863;52.832;4.758;2024-02-26T09:10:26;3.10;;;1.50;;
11614;SDS011;5863;52.832;4.758;2024-02-26T09:12:53;3.73;;;1.60;;
11614;SDS011;5863;52.832;4.758;2024-02-26T09:15:22;4.43;;;1.60;;
11614;SDS011;5863;52.832;4.758;2024-02-26T09:17:49;2.47;;;1.40;;
11614;SDS011;5863;52.832;4.758;2024-02-26T09:20:17;3.47;;;1.67;;
11614;SDS011;5863;52.832;4.758;2024-02-26T09:22:45;4.67;;;1.70;;
11614;SDS011;5863;52.832;4.758;2024-02-26T09:25:12;3.27;;;1.60;;
11614;SDS011;5863;52.832;4.758;2024-02-26T09:27:40;3.63;;;1.90;;
11614;SDS011;5863;52.832;4.758;2024-02-26T09:30:07;4.50;;;1.77;;
11614;SDS011;5863;52.832;4.758;2024-02-26T09:32:36;3.23;;;1.80;;
11614;SDS011;5863;52.832;4.758;2024-02-26T09:35:03;1.67;;;1.57;;
11614;SDS011;5863;52.832;4.758;2024-02-26T09:37:31;4.70;;;1.57;;
11614;SDS011;5863;52.832;4.758;2024-02-26T09:39:58;3.03;;;1.40;;
11614;SDS011;5863;52.832;4.758;2024-02-26T09:42:25;4.60;;;1.50;;
11614;SDS011;5863;52.832;4.758;2024-02-26T09:44:53;4.10;;;1.80;;
11614;SDS011;5863;52.832;4.758;2024-02-26T09:47:21;2.90;;;1.33;;
11614;SDS011;5863;52.832;4.758;2024-02-26T09:49:51;6.10;;;1.80;;
11614;SDS011;5863;52.832;4.758;2024-02-26T09:52:19;3.93;;;1.70;;
11614;SDS011;5863;52.832;4.758;2024-02-26T09:54:47;1.77;;;1.37;;
11614;SDS011;5863;52.832;4.758;2024-02-26T09:57:14;2.27;;;1.23;;
11614;SDS011;5863;52.832;4.758;2024-02-26T09:59:43;8.33;;;1.50;;
11614;SDS011;5863;52.832;4.758;2024-02-26T10:02:11;5.57;;;1.50;;
11614;SDS011;5863;52.832;4.758;2024-02-26T10:04:39;3.30;;;1.70;;
11614;SDS011;5863;52.832;4.758;2024-02-26T10:07:09;7.97;;;2.00;;
11614;SDS011;5863;52.832;4.758;2024-02-26T10:09:37;6.37;;;1.90;;
11614;SDS011;5863;52.832;4.758;2024-02-26T10:12:04;4.67;;;2.00;;
11614;SDS011;5863;52.832;4.758;2024-02-26T10:14:32;2.70;;;1.40;;
11614;SDS011;5863;52.832;4.758;2024-02-26T10:17:00;6.67;;;1.40;;
11614;SDS011;5863;52.832;4.758;2024-02-26T10:19:27;3.83;;;1.53;;
11614;SDS011;5863;52.832;4.758;2024-02-26T10:21:58;2.10;;;1.30;;
11614;SDS011;5863;52.832;4.758;2024-02-26T10:24:28;1.50;;;1.40;;
11614;SDS011;5863;52.832;4.758;2024-02-26T10:26:56;2.57;;;1.77;;
11614;SDS011;5863;52.832;4.758;2024-02-26T10:29:23;4.07;;;1.63;;
11614;SDS011;5863;52.832;4.758;2024-02-26T10:31:51;4.57;;;1.73;;
11614;SDS011;5863;52.832;4.758;2024-02-26T10:34:18;3.20;;;1.40;;
11614;SDS011;5863;52.832;4.758;2024-02-26T10:36:48;2.53;;;1.73;;
11614;SDS011;5863;52.832;4.758;2024-02-26T10:39:15;4.47;;;1.70;;
11614;SDS011;5863;52.832;4.758;2024-02-26T10:41:44;5.17;;;1.70;;
11614;SDS011;5863;52.832;4.758;2024-02-26T10:44:11;3.50;;;1.60;;
11614;SDS011;5863;52.832;4.758;2024-02-26T10:46:40;1.40;;;1.30;;
11614;SDS011;5863;52.832;4.758;2024-02-26T10:49:12;3.73;;;1.60;;
11614;SDS011;5863;52.832;4.758;2024-02-26T10:51:43;3.63;;;1.60;;
11614;SDS011;5863;52.832;4.758;2024-02-26T10:54:12;1.43;;;1.30;;
11614;SDS011;5863;52.832;4.758;2024-02-26T10:56:42;2.23;;;1.70;;
11614;SDS011;5863;52.832;4.758;2024-02-26T10:59:12;3.73;;;1.40;;
11614;SDS011;5863;52.832;4.758;2024-02-26T11:01:40;5.10;;;1.90;;
11614;SDS011;5863;52.832;4.758;2024-02-26T11:04:11;5.80;;;2.00;;
11614;SDS011;5863;52.832;4.758;2024-02-26T11:06:39;4.70;;;1.63;;
11614;SDS011;5863;52.832;4.758;2024-02-26T11:09:06;4.10;;;1.67;;
11614;SDS011;5863;52.832;4.758;2024-02-26T11:11:38;3.90;;;1.73;;
11614;SDS011;5863;52.832;4.758;2024-02-26T11:14:06;2.27;;;1.97;;
11614;SDS011;5863;52.832;4.758;2024-02-26T11:16:35;4.63;;;1.73;;
11614;SDS011;5863;52.832;4.758;2024-02-26T11:19:05;2.77;;;1.57;;
11614;SDS011;5863;52.832;4.758;2024-02-26T11:21:35;4.20;;;1.70;;
11614;SDS011;5863;52.832;4.758;2024-02-26T11:24:06;5.87;;;1.57;;
11614;SDS011;5863;52.832;4.758;2024-02-26T11:26:36;3.40;;;1.47;;
11614;SDS011;5863;52.832;4.758;2024-02-26T11:29:09;3.80;;;1.50;;
11614;SDS011;5863;52.832;4.758;2024-02-26T11:31:39;2.63;;;1.50;;
11614;SDS011;5863;52.832;4.758;2024-02-26T11:34:06;6.47;;;1.53;;
11614;SDS011;5863;52.832;4.758;2024-02-26T11:36:35;3.20;;;1.50;;
11614;SDS011;5863;52.832;4.758;2024-02-26T11:39:04;2.60;;;1.57;;
11614;SDS011;5863;52.832;4.758;2024-02-26T11:41:31;1.77;;;1.20;;
11614;SDS011;5863;52.832;4.758;2024-02-26T11:43:59;2.23;;;1.57;;
11614;SDS011;5863;52.832;4.758;2024-02-26T11:46:29;2.73;;;1.70;;
11614;SDS011;5863;52.832;4.758;2024-02-26T11:48:58;5.33;;;2.07;;
11614;SDS011;5863;52.832;4.758;2024-02-26T11:51:26;4.20;;;1.60;;
11614;SDS011;5863;52.832;4.758;2024-02-26T11:53:54;2.50;;;1.50;;
11614;SDS011;5863;52.832;4.758;2024-02-26T11:56:24;4.87;;;2.00;;
11614;SDS011;5863;52.832;4.758;2024-02-26T11:58:58;4.73;;;2.00;;
11614;SDS011;5863;52.832;4.758;2024-02-26T12:01:37;5.17;;;2.10;;
11614;SDS011;5863;52.832;4.758;2024-02-26T12:04:13;5.47;;;1.80;;
11614;SDS011;5863;52.832;4.758;2024-02-26T12:06:43;8.80;;;2.30;;
11614;SDS011;5863;52.832;4.758;2024-02-26T12:12:03;3.80;;;1.77;;
11614;SDS011;5863;52.832;4.758;2024-02-26T12:14:32;4.13;;;1.83;;
11614;SDS011;5863;52.832;4.758;2024-02-26T12:17:02;3.60;;;1.70;;
11614;SDS011;5863;52.832;4.758;2024-02-26T12:19:32;5.07;;;2.60;;
11614;SDS011;5863;52.832;4.758;2024-02-26T12:22:00;4.23;;;1.77;;
11614;SDS011;5863;52.832;4.758;2024-02-26T12:24:27;4.43;;;2.03;;
11614;SDS011;5863;52.832;4.758;2024-02-26T12:26:54;7.37;;;2.30;;
11614;SDS011;5863;52.832;4.758;2024-02-26T12:29:21;5.30;;;2.40;;
11614;SDS011;5863;52.832;4.758;2024-02-26T12:31:47;4.60;;;2.63;;
11614;SDS011;5863;52.832;4.758;2024-02-26T12:34:16;4.73;;;1.93;;
11614;SDS011;5863;52.832;4.758;2024-02-26T12:36:43;5.87;;;2.13;;
11614;SDS011;5863;52.832;4.758;2024-02-26T12:39:10;3.67;;;2.00;;
11614;SDS011;5863;52.832;4.758;2024-02-26T12:41:37;6.83;;;2.67;;
11614;SDS011;5863;52.832;4.758;2024-02-26T12:44:05;3.73;;;2.20;;
11614;SDS011;5863;52.832;4.758;2024-02-26T12:46:33;4.00;;;2.10;;
11614;SDS011;5863;52.832;4.758;2024-02-26T12:49:00;6.00;;;2.13;;
11614;SDS011;5863;52.832;4.758;2024-02-26T12:51:28;5.67;;;2.27;;
11614;SDS011;5863;52.832;4.758;2024-02-26T12:53:56;5.03;;;2.13;;
11614;SDS011;5863;52.832;4.758;2024-02-26T12:56:24;3.30;;;2.20;;
11614;SDS011;5863;52.832;4.758;2024-02-26T12:58:53;6.03;;;2.20;;
11614;SDS011;5863;52.832;4.758;2024-02-26T13:01:23;7.37;;;2.20;;
11614;SDS011;5863;52.832;4.758;2024-02-26T13:03:51;4.17;;;2.37;;
11614;SDS011;5863;52.832;4.758;2024-02-26T13:06:19;3.73;;;1.80;;
11614;SDS011;5863;52.832;4.758;2024-02-26T13:08:48;5.03;;;2.00;;
11614;SDS011;5863;52.832;4.758;2024-02-26T13:11:15;10.57;;;2.13;;
11614;SDS011;5863;52.832;4.758;2024-02-26T13:13:47;4.37;;;1.90;;
11614;SDS011;5863;52.832;4.758;2024-02-26T13:16:14;7.03;;;2.03;;
11614;SDS011;5863;52.832;4.758;2024-02-26T13:18:41;4.37;;;1.70;;
11614;SDS011;5863;52.832;4.758;2024-02-26T13:21:10;4.23;;;1.97;;
11614;SDS011;5863;52.832;4.758;2024-02-26T13:23:37;7.03;;;1.80;;
11614;SDS011;5863;52.832;4.758;2024-02-26T13:26:06;6.00;;;1.87;;
11614;SDS011;5863;52.832;4.758;2024-02-26T13:28:34;6.37;;;1.80;;
11614;SDS011;5863;52.832;4.758;2024-02-26T13:31:01;4.17;;;1.80;;
11614;SDS011;5863;52.832;4.758;2024-02-26T13:33:29;5.43;;;2.10;;
11614;SDS011;5863;52.832;4.758;2024-02-26T13:35:57;6.10;;;1.60;;
11614;SDS011;5863;52.832;4.758;2024-02-26T13:38:25;9.20;;;2.00;;
11614;SDS011;5863;52.832;4.758;2024-02-26T13:40:52;5.63;;;1.80;;
11614;SDS011;5863;52.832;4.758;2024-02-26T13:43:20;2.93;;;1.20;;
11614;SDS011;5863;52.832;4.758;2024-02-26T13:45:47;7.00;;;1.73;;
11614;SDS011;5863;52.832;4.758;2024-02-26T13:48:14;6.53;;;1.60;;
11614;SDS011;5863;52.832;4.758;2024-02-26T13:50:41;8.07;;;1.87;;
11614;SDS011;5863;52.832;4.758;2024-02-26T13:53:10;2.93;;;1.93;;
11614;SDS011;5863;52.832;4.758;2024-02-26T13:55:37;3.60;;;1.53;;
11614;SDS011;5863;52.832;4.758;2024-02-26T13:58:07;4.83;;;1.70;;
11614;SDS011;5863;52.832;4.758;2024-02-26T14:00:36;5.13;;;1.50;;
11614;SDS011;5863;52.832;4.758;2024-02-26T14:03:03;6.03;;;1.57;;
11614;SDS011;5863;52.832;4.758;2024-02-26T14:05:30;6.40;;;1.37;;
11614;SDS011;5863;52.832;4.758;2024-02-26T14:07:57;7.17;;;1.67;;
11614;SDS011;5863;52.832;4.758;2024-02-26T14:10:24;4.90;;;1.13;;
11614;SDS011;5863;52.832;4.758;2024-02-26T14:12:51;4.30;;;1.57;;
11614;SDS011;5863;52.832;4.758;2024-02-26T14:15:18;4.50;;;1.60;;
11614;SDS011;5863;52.832;4.758;2024-02-26T14:17:46;3.37;;;1.47;;
11614;SDS011;5863;52.832;4.758;2024-02-26T14:20:18;6.73;;;1.70;;
11614;SDS011;5863;52.832;4.758;2024-02-26T14:22:45;7.60;;;1.67;;
11614;SDS011;5863;52.832;4.758;2024-02-26T14:25:12;5.40;;;1.17;;
11614;SDS011;5863;52.832;4.758;2024-02-26T14:27:39;5.90;;;1.33;;
11614;SDS011;5863;52.832;4.758;2024-02-26T14:30:06;7.00;;;1.43;;
11614;SDS011;5863;52.832;4.758;2024-02-26T14:32:34;8.07;;;1.63;;
11614;SDS011;5863;52.832;4.758;2024-02-26T14:35:04;7.40;;;1.50;;
11614;SDS011;5863;52.832;4.758;2024-02-26T14:37:33;3.23;;;1.33;;
11614;SDS011;5863;52.832;4.758;2024-02-26T14:40:00;6.60;;;1.57;;
11614;SDS011;5863;52.832;4.758;2024-02-26T14:42:27;4.93;;;1.40;;
11614;SDS011;5863;52.832;4.758;2024-02-26T14:44:55;5.53;;;1.47;;
11614;SDS011;5863;52.832;4.758;2024-02-26T14:47:22;6.00;;;1.63;;
11614;SDS011;5863;52.832;4.758;2024-02-26T14:49:49;2.30;;;0.87;;
11614;SDS011;5863;52.832;4.758;2024-02-26T14:52:18;4.47;;;1.40;;
11614;SDS011;5863;52.832;4.758;2024-02-26T14:54:45;5.07;;;1.13;;
11614;SDS011;5863;52.832;4.758;2024-02-26T14:57:12;4.70;;;1.37;;
11614;SDS011;5863;52.832;4.758;2024-02-26T14:59:39;3.83;;;1.10;;
11614;SDS011;5863;52.832;4.758;2024-02-26T15:02:06;4.87;;;1.80;;